sensor_id;sensor_type;location;lat;lon;timestamp;P1;durP1;ratioP1;P2;durP2;ratioP2
60241;SDS011;46103;52.076;113.488;2022-12-31T00:01:32;13.60;;;6.05;;
60241;SDS011;46103;52.076;113.488;2022-12-31T00:04:54;19.23;;;5.95;;
60241;SDS011;46103;52.076;113.488;2022-12-31T00:07:58;15.02;;;5.13;;
60241;SDS011;46103;52.076;113.488;2022-12-31T00:11:01;4.40;;;3.92;;
60241;SDS011;46103;52.076;113.488;2022-12-31T00:14:05;3.15;;;2.45;;
60241;SDS011;46103;52.076;113.488;2022-12-31T00:17:08;15.02;;;6.20;;
60241;SDS011;46103;52.076;113.488;2022-12-31T00:20:12;8.40;;;4.05;;
60241;SDS011;46103;52.076;113.488;2022-12-31T00:23:15;26.75;;;11.02;;
60241;SDS011;46103;52.076;113.488;2022-12-31T00:26:22;26.35;;;8.95;;
60241;SDS011;46103;52.076;113.488;2022-12-31T00:29:28;15.70;;;7.47;;
60241;SDS011;46103;52.076;113.488;2022-12-31T00:32:32;7.28;;;3.92;;
60241;SDS011;46103;52.076;113.488;2022-12-31T00:35:35;8.95;;;5.70;;
60241;SDS011;46103;52.076;113.488;2022-12-31T00:38:39;11.95;;;5.05;;
60241;SDS011;46103;52.076;113.488;2022-12-31T00:41:43;19.25;;;7.18;;
60241;SDS011;46103;52.076;113.488;2022-12-31T00:44:46;12.18;;;6.07;;
60241;SDS011;46103;52.076;113.488;2022-12-31T00:47:49;6.05;;;3.97;;
60241;SDS011;46103;52.076;113.488;2022-12-31T00:50:52;18.38;;;5.88;;
60241;SDS011;46103;52.076;113.488;2022-12-31T00:53:57;9.88;;;6.10;;
60241;SDS011;46103;52.076;113.488;2022-12-31T00:57:00;16.30;;;7.88;;
60241;SDS011;46103;52.076;113.488;2022-12-31T01:00:22;21.13;;;8.73;;
60241;SDS011;46103;52.076;113.488;2022-12-31T01:03:26;18.98;;;8.65;;
60241;SDS011;46103;52.076;113.488;2022-12-31T01:06:29;14.77;;;7.82;;
60241;SDS011;46103;52.076;113.488;2022-12-31T01:09:33;21.23;;;9.90;;
60241;SDS011;46103;52.076;113.488;2022-12-31T01:12:40;24.58;;;11.00;;
60241;SDS011;46103;52.076;113.488;2022-12-31T01:15:44;21.13;;;8.50;;
60241;SDS011;46103;52.076;113.488;2022-12-31T01:18:47;25.10;;;11.13;;
60241;SDS011;46103;52.076;113.488;2022-12-31T01:21:51;29.13;;;9.45;;
60241;SDS011;46103;52.076;113.488;2022-12-31T01:25:13;25.42;;;11.18;;
60241;SDS011;46103;52.076;113.488;2022-12-31T01:28:16;25.98;;;11.85;;
60241;SDS011;46103;52.076;113.488;2022-12-31T01:31:20;35.08;;;13.40;;
60241;SDS011;46103;52.076;113.488;2022-12-31T01:34:26;23.50;;;11.63;;
60241;SDS011;46103;52.076;113.488;2022-12-31T01:40:38;15.77;;;7.60;;
60241;SDS011;46103;52.076;113.488;2022-12-31T01:46:53;16.65;;;7.47;;
60241;SDS011;46103;52.076;113.488;2022-12-31T01:50:11;12.02;;;4.97;;
60241;SDS011;46103;52.076;113.488;2022-12-31T01:53:23;8.88;;;5.18;;
60241;SDS011;46103;52.076;113.488;2022-12-31T01:56:27;20.42;;;7.82;;
60241;SDS011;46103;52.076;113.488;2022-12-31T01:59:30;20.55;;;7.65;;
60241;SDS011;46103;52.076;113.488;2022-12-31T02:02:36;15.43;;;6.55;;
60241;SDS011;46103;52.076;113.488;2022-12-31T02:05:49;36.38;;;11.93;;
60241;SDS011;46103;52.076;113.488;2022-12-31T02:08:59;31.05;;;12.02;;
60241;SDS011;46103;52.076;113.488;2022-12-31T02:12:03;25.23;;;9.43;;
60241;SDS011;46103;52.076;113.488;2022-12-31T02:15:31;31.88;;;13.00;;
60241;SDS011;46103;52.076;113.488;2022-12-31T02:29:29;38.28;;;14.52;;
60241;SDS011;46103;52.076;113.488;2022-12-31T02:36:21;44.47;;;19.05;;
60241;SDS011;46103;52.076;113.488;2022-12-31T02:39:26;40.80;;;14.88;;
60241;SDS011;46103;52.076;113.488;2022-12-31T02:42:49;20.75;;;8.15;;
60241;SDS011;46103;52.076;113.488;2022-12-31T02:57:26;27.35;;;12.90;;
60241;SDS011;46103;52.076;113.488;2022-12-31T03:00:45;33.47;;;13.80;;
60241;SDS011;46103;52.076;113.488;2022-12-31T03:04:12;23.00;;;9.73;;
60241;SDS011;46103;52.076;113.488;2022-12-31T03:07:35;28.00;;;10.35;;
60241;SDS011;46103;52.076;113.488;2022-12-31T03:10:39;10.95;;;5.88;;
60241;SDS011;46103;52.076;113.488;2022-12-31T03:13:44;8.85;;;4.53;;
60241;SDS011;46103;52.076;113.488;2022-12-31T03:16:47;7.60;;;3.53;;
60241;SDS011;46103;52.076;113.488;2022-12-31T03:19:50;11.80;;;5.05;;
60241;SDS011;46103;52.076;113.488;2022-12-31T03:23:32;7.85;;;2.95;;
60241;SDS011;46103;52.076;113.488;2022-12-31T03:26:37;9.27;;;4.10;;
60241;SDS011;46103;52.076;113.488;2022-12-31T03:29:41;9.25;;;4.22;;
60241;SDS011;46103;52.076;113.488;2022-12-31T03:33:03;13.77;;;3.03;;
60241;SDS011;46103;52.076;113.488;2022-12-31T03:36:10;12.80;;;3.47;;
60241;SDS011;46103;52.076;113.488;2022-12-31T03:39:15;8.57;;;3.80;;
60241;SDS011;46103;52.076;113.488;2022-12-31T03:42:37;7.15;;;3.03;;
60241;SDS011;46103;52.076;113.488;2022-12-31T03:45:41;10.32;;;3.47;;
60241;SDS011;46103;52.076;113.488;2022-12-31T03:48:44;11.75;;;4.38;;
60241;SDS011;46103;52.076;113.488;2022-12-31T03:51:48;8.80;;;4.63;;
60241;SDS011;46103;52.076;113.488;2022-12-31T03:54:51;8.38;;;3.25;;
60241;SDS011;46103;52.076;113.488;2022-12-31T03:57:54;11.90;;;4.15;;
60241;SDS011;46103;52.076;113.488;2022-12-31T04:00:57;10.30;;;3.30;;
60241;SDS011;46103;52.076;113.488;2022-12-31T04:04:01;5.53;;;3.00;;
60241;SDS011;46103;52.076;113.488;2022-12-31T04:07:05;16.40;;;6.18;;
60241;SDS011;46103;52.076;113.488;2022-12-31T04:10:09;8.00;;;2.80;;
60241;SDS011;46103;52.076;113.488;2022-12-31T04:13:15;4.60;;;2.53;;
60241;SDS011;46103;52.076;113.488;2022-12-31T04:16:19;8.95;;;3.97;;
60241;SDS011;46103;52.076;113.488;2022-12-31T04:19:22;16.08;;;4.63;;
60241;SDS011;46103;52.076;113.488;2022-12-31T04:22:26;13.25;;;5.28;;
60241;SDS011;46103;52.076;113.488;2022-12-31T04:25:30;8.77;;;4.40;;
60241;SDS011;46103;52.076;113.488;2022-12-31T04:32:15;7.55;;;3.28;;
60241;SDS011;46103;52.076;113.488;2022-12-31T04:35:37;1.58;;;1.30;;
60241;SDS011;46103;52.076;113.488;2022-12-31T04:38:40;3.03;;;1.88;;
60241;SDS011;46103;52.076;113.488;2022-12-31T04:41:43;7.80;;;3.85;;
60241;SDS011;46103;52.076;113.488;2022-12-31T04:51:31;7.88;;;2.83;;
60241;SDS011;46103;52.076;113.488;2022-12-31T04:54:35;3.70;;;1.83;;
60241;SDS011;46103;52.076;113.488;2022-12-31T04:57:56;5.88;;;2.40;;
60241;SDS011;46103;52.076;113.488;2022-12-31T05:00:59;9.02;;;3.03;;
60241;SDS011;46103;52.076;113.488;2022-12-31T05:04:03;5.97;;;3.13;;
60241;SDS011;46103;52.076;113.488;2022-12-31T05:07:26;4.82;;;2.35;;
60241;SDS011;46103;52.076;113.488;2022-12-31T05:10:30;16.33;;;4.18;;
60241;SDS011;46103;52.076;113.488;2022-12-31T05:13:33;6.03;;;3.25;;
60241;SDS011;46103;52.076;113.488;2022-12-31T05:16:37;5.22;;;2.75;;
60241;SDS011;46103;52.076;113.488;2022-12-31T05:19:41;2.17;;;1.50;;
60241;SDS011;46103;52.076;113.488;2022-12-31T05:26:25;3.55;;;1.85;;
60241;SDS011;46103;52.076;113.488;2022-12-31T05:29:47;3.08;;;1.73;;
60241;SDS011;46103;52.076;113.488;2022-12-31T05:32:52;5.47;;;2.22;;
60241;SDS011;46103;52.076;113.488;2022-12-31T05:35:57;2.97;;;1.73;;
60241;SDS011;46103;52.076;113.488;2022-12-31T05:39:01;6.80;;;2.70;;
60241;SDS011;46103;52.076;113.488;2022-12-31T05:42:04;5.00;;;2.70;;
60241;SDS011;46103;52.076;113.488;2022-12-31T05:45:08;8.18;;;2.95;;
60241;SDS011;46103;52.076;113.488;2022-12-31T05:48:15;5.05;;;2.75;;
60241;SDS011;46103;52.076;113.488;2022-12-31T05:51:18;4.75;;;2.47;;
60241;SDS011;46103;52.076;113.488;2022-12-31T05:54:21;7.78;;;3.75;;
60241;SDS011;46103;52.076;113.488;2022-12-31T05:57:26;8.48;;;3.25;;
60241;SDS011;46103;52.076;113.488;2022-12-31T06:00:30;6.88;;;2.88;;
60241;SDS011;46103;52.076;113.488;2022-12-31T06:03:33;3.45;;;2.10;;
60241;SDS011;46103;52.076;113.488;2022-12-31T06:06:36;3.65;;;2.28;;
60241;SDS011;46103;52.076;113.488;2022-12-31T06:09:41;10.77;;;3.30;;
60241;SDS011;46103;52.076;113.488;2022-12-31T06:13:03;5.15;;;2.60;;
60241;SDS011;46103;52.076;113.488;2022-12-31T06:16:09;5.25;;;1.83;;
60241;SDS011;46103;52.076;113.488;2022-12-31T06:19:13;6.22;;;3.03;;
60241;SDS011;46103;52.076;113.488;2022-12-31T06:22:35;5.53;;;2.38;;
60241;SDS011;46103;52.076;113.488;2022-12-31T06:25:38;5.88;;;2.63;;
60241;SDS011;46103;52.076;113.488;2022-12-31T06:28:41;4.05;;;2.50;;
60241;SDS011;46103;52.076;113.488;2022-12-31T06:31:45;3.97;;;2.50;;
60241;SDS011;46103;52.076;113.488;2022-12-31T06:34:48;6.55;;;2.47;;
60241;SDS011;46103;52.076;113.488;2022-12-31T06:38:09;5.72;;;1.92;;
60241;SDS011;46103;52.076;113.488;2022-12-31T06:41:30;5.88;;;2.75;;
60241;SDS011;46103;52.076;113.488;2022-12-31T06:48:14;8.48;;;4.20;;
60241;SDS011;46103;52.076;113.488;2022-12-31T06:51:18;5.60;;;2.13;;
60241;SDS011;46103;52.076;113.488;2022-12-31T06:54:23;5.43;;;2.88;;
60241;SDS011;46103;52.076;113.488;2022-12-31T06:57:27;6.65;;;3.28;;
60241;SDS011;46103;52.076;113.488;2022-12-31T07:00:32;7.18;;;3.28;;
60241;SDS011;46103;52.076;113.488;2022-12-31T07:03:43;9.88;;;3.92;;
60241;SDS011;46103;52.076;113.488;2022-12-31T07:10:25;6.65;;;2.95;;
60241;SDS011;46103;52.076;113.488;2022-12-31T07:18:02;8.77;;;2.45;;
60241;SDS011;46103;52.076;113.488;2022-12-31T07:20:57;3.28;;;2.08;;
60241;SDS011;46103;52.076;113.488;2022-12-31T07:24:01;1.45;;;1.30;;
60241;SDS011;46103;52.076;113.488;2022-12-31T07:30:34;4.57;;;2.17;;
60241;SDS011;46103;52.076;113.488;2022-12-31T07:33:57;6.05;;;2.08;;
60241;SDS011;46103;52.076;113.488;2022-12-31T07:37:08;5.10;;;3.13;;
60241;SDS011;46103;52.076;113.488;2022-12-31T07:47:20;4.55;;;2.13;;
60241;SDS011;46103;52.076;113.488;2022-12-31T07:50:28;4.18;;;2.10;;
60241;SDS011;46103;52.076;113.488;2022-12-31T07:53:32;9.73;;;2.38;;
60241;SDS011;46103;52.076;113.488;2022-12-31T07:56:35;4.82;;;1.83;;
60241;SDS011;46103;52.076;113.488;2022-12-31T08:03:46;7.15;;;2.67;;
60241;SDS011;46103;52.076;113.488;2022-12-31T08:10:34;5.47;;;2.60;;
60241;SDS011;46103;52.076;113.488;2022-12-31T08:13:45;5.93;;;2.20;;
60241;SDS011;46103;52.076;113.488;2022-12-31T08:17:10;5.95;;;1.80;;
60241;SDS011;46103;52.076;113.488;2022-12-31T08:20:35;11.73;;;2.65;;
60241;SDS011;46103;52.076;113.488;2022-12-31T08:27:25;6.50;;;2.45;;
60241;SDS011;46103;52.076;113.488;2022-12-31T08:30:36;8.27;;;4.43;;
60241;SDS011;46103;52.076;113.488;2022-12-31T08:34:24;7.63;;;4.40;;
60241;SDS011;46103;52.076;113.488;2022-12-31T08:37:58;15.43;;;6.45;;
60241;SDS011;46103;52.076;113.488;2022-12-31T08:48:13;19.95;;;7.80;;
60241;SDS011;46103;52.076;113.488;2022-12-31T08:51:21;16.83;;;6.85;;
60241;SDS011;46103;52.076;113.488;2022-12-31T08:54:27;13.68;;;6.07;;
60241;SDS011;46103;52.076;113.488;2022-12-31T09:01:48;29.42;;;9.73;;
60241;SDS011;46103;52.076;113.488;2022-12-31T09:05:45;9.73;;;5.37;;
60241;SDS011;46103;52.076;113.488;2022-12-31T09:12:28;9.25;;;5.22;;
60241;SDS011;46103;52.076;113.488;2022-12-31T09:19:04;17.58;;;7.82;;
60241;SDS011;46103;52.076;113.488;2022-12-31T09:22:26;14.93;;;7.07;;
60241;SDS011;46103;52.076;113.488;2022-12-31T09:25:30;18.98;;;10.48;;
60241;SDS011;46103;52.076;113.488;2022-12-31T09:49:02;44.80;;;16.77;;
60241;SDS011;46103;52.076;113.488;2022-12-31T09:55:55;20.60;;;8.20;;
60241;SDS011;46103;52.076;113.488;2022-12-31T09:59:29;25.30;;;9.07;;
60241;SDS011;46103;52.076;113.488;2022-12-31T10:16:02;15.57;;;7.25;;
60241;SDS011;46103;52.076;113.488;2022-12-31T10:19:25;9.38;;;4.38;;
60241;SDS011;46103;52.076;113.488;2022-12-31T10:22:42;7.07;;;4.35;;
60241;SDS011;46103;52.076;113.488;2022-12-31T10:26:13;4.50;;;2.47;;
60241;SDS011;46103;52.076;113.488;2022-12-31T10:32:38;3.58;;;2.72;;
60241;SDS011;46103;52.076;113.488;2022-12-31T11:00:08;14.48;;;8.10;;
60241;SDS011;46103;52.076;113.488;2022-12-31T11:17:23;12.80;;;8.00;;
60241;SDS011;46103;52.076;113.488;2022-12-31T11:24:09;13.60;;;6.45;;
60241;SDS011;46103;52.076;113.488;2022-12-31T11:31:17;25.60;;;8.05;;
60241;SDS011;46103;52.076;113.488;2022-12-31T11:41:33;16.80;;;6.65;;
60241;SDS011;46103;52.076;113.488;2022-12-31T11:45:01;24.58;;;7.40;;
60241;SDS011;46103;52.076;113.488;2022-12-31T11:48:59;20.63;;;6.88;;
60241;SDS011;46103;52.076;113.488;2022-12-31T11:52:06;30.15;;;8.07;;
60241;SDS011;46103;52.076;113.488;2022-12-31T11:58:45;23.45;;;7.57;;
60241;SDS011;46103;52.076;113.488;2022-12-31T12:02:03;18.42;;;7.57;;
60241;SDS011;46103;52.076;113.488;2022-12-31T12:05:14;10.15;;;4.85;;
60241;SDS011;46103;52.076;113.488;2022-12-31T12:08:39;26.25;;;9.30;;
60241;SDS011;46103;52.076;113.488;2022-12-31T12:12:03;23.23;;;7.22;;
60241;SDS011;46103;52.076;113.488;2022-12-31T12:15:08;15.10;;;5.88;;
60241;SDS011;46103;52.076;113.488;2022-12-31T12:18:47;15.00;;;5.47;;
60241;SDS011;46103;52.076;113.488;2022-12-31T12:21:52;18.77;;;7.18;;
60241;SDS011;46103;52.076;113.488;2022-12-31T12:25:04;14.88;;;5.47;;
60241;SDS011;46103;52.076;113.488;2022-12-31T12:28:43;33.00;;;10.55;;
60241;SDS011;46103;52.076;113.488;2022-12-31T12:35:22;23.50;;;7.72;;
60241;SDS011;46103;52.076;113.488;2022-12-31T12:38:29;19.23;;;6.43;;
60241;SDS011;46103;52.076;113.488;2022-12-31T12:41:32;17.65;;;6.18;;
60241;SDS011;46103;52.076;113.488;2022-12-31T12:44:36;29.65;;;8.07;;
60241;SDS011;46103;52.076;113.488;2022-12-31T12:48:18;17.83;;;6.03;;
60241;SDS011;46103;52.076;113.488;2022-12-31T12:59:31;22.08;;;8.02;;
60241;SDS011;46103;52.076;113.488;2022-12-31T13:23:33;3.58;;;3.25;;
60241;SDS011;46103;52.076;113.488;2022-12-31T13:30:25;8.57;;;5.60;;
60241;SDS011;46103;52.076;113.488;2022-12-31T13:33:44;9.13;;;5.03;;
60241;SDS011;46103;52.076;113.488;2022-12-31T13:53:33;13.98;;;5.28;;
60241;SDS011;46103;52.076;113.488;2022-12-31T13:57:02;9.38;;;4.28;;
60241;SDS011;46103;52.076;113.488;2022-12-31T14:00:36;8.68;;;5.95;;
60241;SDS011;46103;52.076;113.488;2022-12-31T14:07:06;9.63;;;5.63;;
60241;SDS011;46103;52.076;113.488;2022-12-31T14:14:51;7.35;;;5.97;;
60241;SDS011;46103;52.076;113.488;2022-12-31T14:28:32;10.93;;;7.05;;
60241;SDS011;46103;52.076;113.488;2022-12-31T14:45:52;11.43;;;5.75;;
60241;SDS011;46103;52.076;113.488;2022-12-31T14:56:29;6.93;;;2.97;;
60241;SDS011;46103;52.076;113.488;2022-12-31T14:59:51;11.15;;;4.50;;
60241;SDS011;46103;52.076;113.488;2022-12-31T15:03:22;9.07;;;4.82;;
60241;SDS011;46103;52.076;113.488;2022-12-31T15:10:02;42.00;;;17.08;;
60241;SDS011;46103;52.076;113.488;2022-12-31T15:21:12;29.00;;;13.93;;
60241;SDS011;46103;52.076;113.488;2022-12-31T15:24:51;39.70;;;16.40;;
60241;SDS011;46103;52.076;113.488;2022-12-31T15:28:38;30.95;;;11.85;;
60241;SDS011;46103;52.076;113.488;2022-12-31T15:31:43;25.83;;;12.50;;
60241;SDS011;46103;52.076;113.488;2022-12-31T15:41:46;16.08;;;6.60;;
60241;SDS011;46103;52.076;113.488;2022-12-31T15:45:25;17.10;;;7.13;;
60241;SDS011;46103;52.076;113.488;2022-12-31T15:48:43;15.55;;;5.43;;
60241;SDS011;46103;52.076;113.488;2022-12-31T15:52:06;9.23;;;5.80;;
60241;SDS011;46103;52.076;113.488;2022-12-31T15:55:59;12.02;;;6.38;;
60241;SDS011;46103;52.076;113.488;2022-12-31T15:58:55;17.45;;;7.10;;
60241;SDS011;46103;52.076;113.488;2022-12-31T16:02:01;10.82;;;5.43;;
60241;SDS011;46103;52.076;113.488;2022-12-31T16:05:14;16.42;;;7.63;;
60241;SDS011;46103;52.076;113.488;2022-12-31T16:08:58;6.57;;;3.40;;
60241;SDS011;46103;52.076;113.488;2022-12-31T16:12:08;16.70;;;6.80;;
60241;SDS011;46103;52.076;113.488;2022-12-31T16:15:18;10.55;;;4.85;;
60241;SDS011;46103;52.076;113.488;2022-12-31T16:18:24;7.43;;;4.32;;
60241;SDS011;46103;52.076;113.488;2022-12-31T16:21:39;14.60;;;4.78;;
60241;SDS011;46103;52.076;113.488;2022-12-31T16:24:58;11.45;;;4.45;;
60241;SDS011;46103;52.076;113.488;2022-12-31T16:28:26;16.75;;;6.35;;
60241;SDS011;46103;52.076;113.488;2022-12-31T16:31:32;10.05;;;3.53;;
60241;SDS011;46103;52.076;113.488;2022-12-31T16:34:36;19.13;;;6.45;;
60241;SDS011;46103;52.076;113.488;2022-12-31T16:37:40;8.68;;;4.43;;
60241;SDS011;46103;52.076;113.488;2022-12-31T16:41:28;16.83;;;4.95;;
60241;SDS011;46103;52.076;113.488;2022-12-31T16:44:09;11.93;;;5.30;;
60241;SDS011;46103;52.076;113.488;2022-12-31T16:50:53;21.08;;;7.65;;
60241;SDS011;46103;52.076;113.488;2022-12-31T16:53:58;17.85;;;4.10;;
60241;SDS011;46103;52.076;113.488;2022-12-31T16:57:03;11.98;;;5.82;;
60241;SDS011;46103;52.076;113.488;2022-12-31T17:00:26;13.95;;;6.15;;
60241;SDS011;46103;52.076;113.488;2022-12-31T17:03:29;14.30;;;5.45;;
60241;SDS011;46103;52.076;113.488;2022-12-31T17:06:32;13.18;;;4.47;;
60241;SDS011;46103;52.076;113.488;2022-12-31T17:09:36;13.45;;;4.78;;
60241;SDS011;46103;52.076;113.488;2022-12-31T17:12:42;8.40;;;4.35;;
60241;SDS011;46103;52.076;113.488;2022-12-31T17:16:08;13.35;;;5.53;;
60241;SDS011;46103;52.076;113.488;2022-12-31T17:19:57;15.52;;;5.53;;
60241;SDS011;46103;52.076;113.488;2022-12-31T17:22:42;8.88;;;4.05;;
60241;SDS011;46103;52.076;113.488;2022-12-31T17:25:47;14.98;;;6.03;;
60241;SDS011;46103;52.076;113.488;2022-12-31T17:28:50;8.60;;;4.47;;
60241;SDS011;46103;52.076;113.488;2022-12-31T17:32:03;15.00;;;5.38;;
60241;SDS011;46103;52.076;113.488;2022-12-31T17:35:55;12.68;;;4.25;;
60241;SDS011;46103;52.076;113.488;2022-12-31T17:38:50;15.88;;;5.60;;
60241;SDS011;46103;52.076;113.488;2022-12-31T17:41:55;9.35;;;3.15;;
60241;SDS011;46103;52.076;113.488;2022-12-31T17:45:00;11.68;;;4.45;;
60241;SDS011;46103;52.076;113.488;2022-12-31T17:48:09;13.25;;;4.70;;
60241;SDS011;46103;52.076;113.488;2022-12-31T17:51:15;7.80;;;5.50;;
60241;SDS011;46103;52.076;113.488;2022-12-31T17:54:43;8.98;;;4.40;;
60241;SDS011;46103;52.076;113.488;2022-12-31T17:57:48;21.80;;;7.43;;
60241;SDS011;46103;52.076;113.488;2022-12-31T18:00:54;12.85;;;4.97;;
60241;SDS011;46103;52.076;113.488;2022-12-31T18:03:59;23.42;;;7.35;;
60241;SDS011;46103;52.076;113.488;2022-12-31T18:07:04;18.02;;;6.20;;
60241;SDS011;46103;52.076;113.488;2022-12-31T18:10:08;12.98;;;3.92;;
60241;SDS011;46103;52.076;113.488;2022-12-31T18:13:16;10.38;;;5.50;;
60241;SDS011;46103;52.076;113.488;2022-12-31T18:16:25;14.88;;;6.50;;
60241;SDS011;46103;52.076;113.488;2022-12-31T18:19:46;16.83;;;6.60;;
60241;SDS011;46103;52.076;113.488;2022-12-31T18:23:11;10.32;;;6.07;;
60241;SDS011;46103;52.076;113.488;2022-12-31T18:29:27;5.53;;;2.72;;
60241;SDS011;46103;52.076;113.488;2022-12-31T18:32:31;5.57;;;3.50;;
60241;SDS011;46103;52.076;113.488;2022-12-31T18:35:35;5.63;;;3.85;;
60241;SDS011;46103;52.076;113.488;2022-12-31T18:38:58;22.33;;;6.15;;
60241;SDS011;46103;52.076;113.488;2022-12-31T18:42:01;19.90;;;4.80;;
60241;SDS011;46103;52.076;113.488;2022-12-31T18:45:23;12.45;;;6.38;;
60241;SDS011;46103;52.076;113.488;2022-12-31T18:48:27;16.73;;;5.40;;
60241;SDS011;46103;52.076;113.488;2022-12-31T18:51:48;9.32;;;4.65;;
60241;SDS011;46103;52.076;113.488;2022-12-31T18:55:24;26.05;;;8.30;;
60241;SDS011;46103;52.076;113.488;2022-12-31T18:58:41;6.15;;;3.53;;
60241;SDS011;46103;52.076;113.488;2022-12-31T19:01:45;7.43;;;3.00;;
60241;SDS011;46103;52.076;113.488;2022-12-31T19:04:48;4.65;;;2.80;;
60241;SDS011;46103;52.076;113.488;2022-12-31T19:07:52;9.52;;;3.83;;
60241;SDS011;46103;52.076;113.488;2022-12-31T19:10:57;8.88;;;3.75;;
60241;SDS011;46103;52.076;113.488;2022-12-31T19:14:01;13.23;;;5.07;;
60241;SDS011;46103;52.076;113.488;2022-12-31T19:17:05;13.32;;;4.88;;
60241;SDS011;46103;52.076;113.488;2022-12-31T19:20:07;8.27;;;2.80;;
60241;SDS011;46103;52.076;113.488;2022-12-31T19:23:12;9.13;;;4.75;;
60241;SDS011;46103;52.076;113.488;2022-12-31T19:26:19;6.75;;;3.05;;
60241;SDS011;46103;52.076;113.488;2022-12-31T19:29:24;9.63;;;3.45;;
60241;SDS011;46103;52.076;113.488;2022-12-31T19:32:29;9.70;;;3.92;;
60241;SDS011;46103;52.076;113.488;2022-12-31T19:35:33;7.60;;;3.45;;
60241;SDS011;46103;52.076;113.488;2022-12-31T19:38:55;6.57;;;3.08;;
60241;SDS011;46103;52.076;113.488;2022-12-31T19:41:58;9.63;;;4.38;;
60241;SDS011;46103;52.076;113.488;2022-12-31T19:45:02;3.50;;;2.10;;
60241;SDS011;46103;52.076;113.488;2022-12-31T19:48:24;10.45;;;4.45;;
60241;SDS011;46103;52.076;113.488;2022-12-31T19:51:33;7.32;;;4.07;;
60241;SDS011;46103;52.076;113.488;2022-12-31T19:54:36;4.70;;;2.30;;
60241;SDS011;46103;52.076;113.488;2022-12-31T19:57:40;10.68;;;5.22;;
60241;SDS011;46103;52.076;113.488;2022-12-31T20:00:43;8.52;;;3.25;;
60241;SDS011;46103;52.076;113.488;2022-12-31T20:04:24;3.97;;;2.80;;
60241;SDS011;46103;52.076;113.488;2022-12-31T20:07:28;5.57;;;2.58;;
60241;SDS011;46103;52.076;113.488;2022-12-31T20:10:31;9.40;;;4.18;;
60241;SDS011;46103;52.076;113.488;2022-12-31T20:13:35;8.88;;;3.88;;
60241;SDS011;46103;52.076;113.488;2022-12-31T20:16:58;4.88;;;3.30;;
60241;SDS011;46103;52.076;113.488;2022-12-31T20:20:02;5.78;;;3.70;;
60241;SDS011;46103;52.076;113.488;2022-12-31T20:23:25;8.93;;;4.35;;
60241;SDS011;46103;52.076;113.488;2022-12-31T20:26:28;8.93;;;3.42;;
60241;SDS011;46103;52.076;113.488;2022-12-31T20:29:31;15.00;;;4.70;;
60241;SDS011;46103;52.076;113.488;2022-12-31T20:32:35;8.15;;;3.67;;
60241;SDS011;46103;52.076;113.488;2022-12-31T20:36:01;4.60;;;2.88;;
60241;SDS011;46103;52.076;113.488;2022-12-31T20:39:06;6.35;;;4.15;;
60241;SDS011;46103;52.076;113.488;2022-12-31T20:42:09;9.73;;;3.25;;
60241;SDS011;46103;52.076;113.488;2022-12-31T20:45:12;3.42;;;2.45;;
60241;SDS011;46103;52.076;113.488;2022-12-31T20:48:16;9.77;;;3.78;;
60241;SDS011;46103;52.076;113.488;2022-12-31T20:51:20;4.68;;;2.78;;
60241;SDS011;46103;52.076;113.488;2022-12-31T20:54:24;6.28;;;2.38;;
60241;SDS011;46103;52.076;113.488;2022-12-31T20:57:27;6.40;;;2.47;;
60241;SDS011;46103;52.076;113.488;2022-12-31T21:00:35;5.80;;;3.22;;
60241;SDS011;46103;52.076;113.488;2022-12-31T21:03:39;7.00;;;3.13;;
60241;SDS011;46103;52.076;113.488;2022-12-31T21:07:04;5.95;;;3.15;;
60241;SDS011;46103;52.076;113.488;2022-12-31T21:10:08;7.35;;;3.80;;
60241;SDS011;46103;52.076;113.488;2022-12-31T21:16:33;15.75;;;5.22;;
60241;SDS011;46103;52.076;113.488;2022-12-31T21:19:37;10.63;;;4.18;;
60241;SDS011;46103;52.076;113.488;2022-12-31T21:26:20;3.00;;;2.70;;
60241;SDS011;46103;52.076;113.488;2022-12-31T21:29:24;5.90;;;3.15;;
60241;SDS011;46103;52.076;113.488;2022-12-31T21:32:35;4.25;;;2.65;;
60241;SDS011;46103;52.076;113.488;2022-12-31T21:35:37;5.57;;;3.75;;
60241;SDS011;46103;52.076;113.488;2022-12-31T21:38:48;7.22;;;3.97;;
60241;SDS011;46103;52.076;113.488;2022-12-31T21:41:51;8.20;;;4.95;;
60241;SDS011;46103;52.076;113.488;2022-12-31T21:45:13;10.80;;;2.85;;
60241;SDS011;46103;52.076;113.488;2022-12-31T21:48:16;6.63;;;3.10;;
60241;SDS011;46103;52.076;113.488;2022-12-31T21:51:22;8.82;;;3.30;;
60241;SDS011;46103;52.076;113.488;2022-12-31T21:54:26;11.65;;;4.15;;
60241;SDS011;46103;52.076;113.488;2022-12-31T21:57:49;12.02;;;4.65;;
60241;SDS011;46103;52.076;113.488;2022-12-31T22:01:17;8.05;;;4.22;;
60241;SDS011;46103;52.076;113.488;2022-12-31T22:04:41;5.30;;;4.30;;
60241;SDS011;46103;52.076;113.488;2022-12-31T22:08:03;3.15;;;2.72;;
60241;SDS011;46103;52.076;113.488;2022-12-31T22:11:07;8.60;;;4.40;;
60241;SDS011;46103;52.076;113.488;2022-12-31T22:14:11;9.23;;;3.60;;
60241;SDS011;46103;52.076;113.488;2022-12-31T22:17:15;4.82;;;3.60;;
60241;SDS011;46103;52.076;113.488;2022-12-31T22:20:18;9.80;;;4.72;;
60241;SDS011;46103;52.076;113.488;2022-12-31T22:23:29;8.10;;;3.67;;
60241;SDS011;46103;52.076;113.488;2022-12-31T22:26:52;7.28;;;3.00;;
60241;SDS011;46103;52.076;113.488;2022-12-31T22:29:57;3.63;;;3.38;;
60241;SDS011;46103;52.076;113.488;2022-12-31T22:33:01;3.70;;;2.40;;
60241;SDS011;46103;52.076;113.488;2022-12-31T22:36:05;9.27;;;3.60;;
60241;SDS011;46103;52.076;113.488;2022-12-31T22:42:45;3.17;;;2.00;;
60241;SDS011;46103;52.076;113.488;2022-12-31T22:45:48;5.53;;;3.13;;
60241;SDS011;46103;52.076;113.488;2022-12-31T22:48:52;4.57;;;3.15;;
60241;SDS011;46103;52.076;113.488;2022-12-31T22:51:58;10.63;;;3.47;;
60241;SDS011;46103;52.076;113.488;2022-12-31T22:55:09;4.78;;;2.92;;
60241;SDS011;46103;52.076;113.488;2022-12-31T22:58:13;4.70;;;2.65;;
60241;SDS011;46103;52.076;113.488;2022-12-31T23:01:20;6.15;;;3.03;;
60241;SDS011;46103;52.076;113.488;2022-12-31T23:04:25;2.55;;;2.10;;
60241;SDS011;46103;52.076;113.488;2022-12-31T23:07:30;4.95;;;3.25;;
60241;SDS011;46103;52.076;113.488;2022-12-31T23:10:34;2.30;;;2.10;;
60241;SDS011;46103;52.076;113.488;2022-12-31T23:13:56;4.28;;;2.65;;
60241;SDS011;46103;52.076;113.488;2022-12-31T23:17:20;5.78;;;3.15;;
60241;SDS011;46103;52.076;113.488;2022-12-31T23:20:44;4.30;;;2.38;;
60241;SDS011;46103;52.076;113.488;2022-12-31T23:24:06;2.90;;;2.67;;
60241;SDS011;46103;52.076;113.488;2022-12-31T23:27:20;4.53;;;2.50;;
60241;SDS011;46103;52.076;113.488;2022-12-31T23:30:23;13.30;;;5.43;;
60241;SDS011;46103;52.076;113.488;2022-12-31T23:33:26;5.43;;;3.00;;
60241;SDS011;46103;52.076;113.488;2022-12-31T23:36:49;10.25;;;3.13;;
60241;SDS011;46103;52.076;113.488;2022-12-31T23:39:52;4.63;;;2.53;;
60241;SDS011;46103;52.076;113.488;2022-12-31T23:42:55;3.05;;;2.60;;
60241;SDS011;46103;52.076;113.488;2022-12-31T23:45:58;2.42;;;2.13;;
60241;SDS011;46103;52.076;113.488;2022-12-31T23:49:21;3.33;;;2.38;;
60241;SDS011;46103;52.076;113.488;2022-12-31T23:52:25;2.25;;;2.03;;